Time;durP1;ratioP1;P1;durP2;ratioP2;P2;SDS_P1;SDS_P2;PMS_P1;PMS_P2;Temp;Humidity;BMP_temperature;BMP_pressure;BME280_temperature;BME280_humidity;BME280_pressure;Samples;Min_cycle;Max_cycle;Signal;HPM_P1;HPM_P2
2021/12/25 00:00:16;;;;;;;8.07;6.40;;;6.40;87.10;;;;;;5105908;28;20043;-79
2021/12/25 00:02:43;;;;;;;8.32;7.18;;;6.30;86.70;;;;;;5100804;28;20024;-80
2021/12/25 00:05:10;;;;;;;6.13;5.13;;;6.20;86.50;;;;;;5104900;28;20462;-81
2021/12/25 00:07:35;;;;;;;7.57;6.10;;;6.20;86.90;;;;;;5084345;28;20035;-83
2021/12/25 00:10:01;;;;;;;6.25;5.00;;;6.20;86.80;;;;;;5098661;28;20425;-83
2021/12/25 00:12:27;;;;;;;10.02;7.85;;;6.20;86.90;;;;;;5095456;28;20099;-82
2021/12/25 00:14:54;;;;;;;9.23;7.30;;;6.30;87.00;;;;;;5102271;28;20149;-83
2021/12/25 00:17:19;;;;;;;7.72;6.15;;;6.10;86.10;;;;;;5099768;28;20531;-83
2021/12/25 00:19:45;;;;;;;9.05;7.00;;;6.00;86.80;;;;;;5092658;28;20075;-84
2021/12/25 00:22:10;;;;;;;8.73;5.95;;;5.90;86.90;;;;;;5104001;28;20035;-84
2021/12/25 00:24:42;;;;;;;8.13;6.30;;;5.90;87.20;;;;;;5102695;28;20012;-84
2021/12/25 00:27:56;;;;;;;7.38;5.68;;;5.80;87.10;;;;;;5101024;28;20088;-86
2021/12/25 00:35:12;;;;;;;7.13;6.13;;;5.70;86.90;;;;;;5093391;28;20035;-84
2021/12/25 00:37:39;;;;;;;8.88;6.80;;;5.70;87.30;;;;;;5085521;28;20850;-82
2021/12/25 00:40:06;;;;;;;7.30;5.78;;;5.70;87.40;;;;;;5091952;28;20035;-83
2021/12/25 00:42:32;;;;;;;5.25;4.28;;;5.70;87.70;;;;;;5091004;28;20508;-83
2021/12/25 00:44:57;;;;;;;5.80;5.15;;;5.80;87.60;;;;;;5100899;28;20019;-82
2021/12/25 00:47:23;;;;;;;5.40;4.35;;;5.80;87.30;;;;;;5100051;28;20367;-83
2021/12/25 00:49:49;;;;;;;5.55;4.93;;;5.70;87.30;;;;;;5089921;28;20020;-82
2021/12/25 00:52:14;;;;;;;5.43;4.50;;;5.70;87.10;;;;;;5093396;28;20466;-82
2021/12/25 00:54:40;;;;;;;4.90;4.30;;;5.60;87.30;;;;;;5098817;28;20023;-84
2021/12/25 00:57:06;;;;;;;4.07;3.40;;;5.40;86.70;;;;;;5093897;28;20011;-81
2021/12/25 00:59:32;;;;;;;5.82;5.10;;;5.30;87.00;;;;;;5097548;28;20040;-81
2021/12/25 01:01:58;;;;;;;6.55;5.43;;;5.20;87.10;;;;;;5101538;28;20065;-84
2021/12/25 01:04:24;;;;;;;6.70;5.50;;;5.00;87.40;;;;;;5098266;28;20050;-84
2021/12/25 01:06:49;;;;;;;5.15;4.40;;;5.10;87.60;;;;;;5097723;28;20482;-83
2021/12/25 01:09:15;;;;;;;6.68;5.40;;;5.00;87.80;;;;;;5096458;28;20030;-84
2021/12/25 01:11:43;;;;;;;6.60;5.40;;;5.00;87.80;;;;;;5085557;28;20026;-83
2021/12/25 01:14:56;;;;;;;4.53;3.83;;;5.00;88.00;;;;;;5102517;28;20034;-83
2021/12/25 01:20:07;;;;;;;5.88;4.95;;;5.10;88.10;;;;;;5097858;28;20087;-83
2021/12/25 01:30:28;;;;;;;8.88;7.70;;;4.80;86.70;;;;;;5100295;28;20080;-83
2021/12/25 01:38:39;;;;;;;9.90;8.32;;;4.60;87.50;;;;;;5098311;28;20210;-82
2021/12/25 01:41:18;;;;;;;9.02;7.50;;;4.40;87.00;;;;;;5090026;28;20055;-82
2021/12/25 01:49:15;;;;;;;11.55;9.13;;;4.40;88.00;;;;;;5096226;28;20508;-84
2021/12/25 01:51:41;;;;;;;11.95;9.70;;;4.10;87.30;;;;;;5100278;28;20023;-83
2021/12/25 01:54:07;;;;;;;11.32;8.68;;;4.20;87.90;;;;;;5100813;28;20542;-84
2021/12/25 01:56:32;;;;;;;10.98;8.82;;;4.10;87.90;;;;;;5097078;28;20498;-85
2021/12/25 01:58:58;;;;;;;12.27;10.00;;;4.10;88.00;;;;;;5105273;28;20599;-83
2021/12/25 02:01:24;;;;;;;12.60;10.30;;;4.10;87.80;;;;;;5106571;28;20669;-85
2021/12/25 02:03:49;;;;;;;10.60;7.85;;;4.10;87.90;;;;;;5096706;28;20393;-84
2021/12/25 02:06:16;;;;;;;11.25;9.02;;;4.20;88.30;;;;;;5098589;28;20047;-84
2021/12/25 02:08:43;;;;;;;14.20;11.32;;;4.30;88.20;;;;;;5091991;28;20016;-83
2021/12/25 02:11:13;;;;;;;14.18;11.27;;;4.20;87.30;;;;;;5107733;28;20027;-82
2021/12/25 02:13:41;;;;;;;12.07;9.32;;;4.10;87.40;;;;;;5095143;28;20486;-82
2021/12/25 02:16:13;;;;;;;16.58;13.10;;;4.10;87.80;;;;;;5105536;28;20084;-82
2021/12/25 02:21:37;;;;;;;16.85;13.00;;;4.10;87.80;;;;;;5114611;28;20035;-81
2021/12/25 02:24:07;;;;;;;18.50;14.15;;;4.00;87.60;;;;;;5104204;28;20036;-83
2021/12/25 02:26:35;;;;;;;16.08;12.35;;;3.90;87.40;;;;;;5105155;28;20058;-82
2021/12/25 02:29:01;;;;;;;18.40;14.07;;;3.80;87.80;;;;;;5099420;27;20026;-83
2021/12/25 02:31:27;;;;;;;19.75;15.13;;;3.70;87.50;;;;;;5103862;28;20016;-82
2021/12/25 02:33:53;;;;;;;20.63;15.32;;;3.60;87.80;;;;;;5099515;28;20498;-81
2021/12/25 02:36:18;;;;;;;19.88;15.07;;;3.60;88.00;;;;;;5102689;28;20554;-81
2021/12/25 02:38:45;;;;;;;19.85;14.70;;;3.60;88.00;;;;;;5102875;28;20142;-81
2021/12/25 02:41:11;;;;;;;18.27;13.63;;;3.60;88.20;;;;;;5101553;28;20356;-82
2021/12/25 02:43:37;;;;;;;17.63;13.23;;;3.60;88.40;;;;;;5093458;28;20012;-81
2021/12/25 02:46:05;;;;;;;20.58;15.07;;;3.70;88.50;;;;;;5100791;27;20024;-80
2021/12/25 02:48:32;;;;;;;16.98;12.32;;;3.70;88.30;;;;;;5104979;28;20478;-82
2021/12/25 02:50:58;;;;;;;19.33;14.13;;;3.60;88.20;;;;;;5101711;28;20016;-81
2021/12/25 02:53:24;;;;;;;15.95;11.70;;;3.70;88.40;;;;;;5097454;28;21914;-82
2021/12/25 02:55:49;;;;;;;19.98;14.45;;;3.70;88.50;;;;;;5102856;28;20032;-82
2021/12/25 02:58:19;;;;;;;15.27;11.50;;;3.80;88.40;;;;;;5101496;28;20478;-83
2021/12/25 03:00:51;;;;;;;23.30;16.10;;;3.80;88.40;;;;;;5104497;28;20032;-83
2021/12/25 03:03:17;;;;;;;16.85;11.05;;;3.80;88.30;;;;;;5099943;28;20019;-82
2021/12/25 03:05:43;;;;;;;18.63;13.02;;;3.90;88.30;;;;;;5103311;28;20379;-81
2021/12/25 03:08:10;;;;;;;20.42;14.00;;;3.80;88.10;;;;;;5100664;28;20023;-83
2021/12/25 03:10:37;;;;;;;17.30;12.32;;;3.80;88.00;;;;;;5106369;28;20069;-82
2021/12/25 03:13:17;;;;;;;20.80;14.23;;;3.70;88.00;;;;;;5096251;28;20030;-83
2021/12/25 03:15:46;;;;;;;19.52;13.00;;;3.60;88.00;;;;;;5106426;28;20466;-83
2021/12/25 03:18:24;;;;;;;17.60;12.23;;;3.60;88.20;;;;;;5106121;28;20497;-83
2021/12/25 03:20:56;;;;;;;17.33;12.77;;;3.60;88.10;;;;;;5105699;28;20040;-83
2021/12/25 03:23:24;;;;;;;19.95;14.13;;;3.60;88.20;;;;;;5105094;28;20052;-84
2021/12/25 03:25:52;;;;;;;20.67;13.77;;;3.50;88.10;;;;;;5106842;28;21006;-83
2021/12/25 03:28:21;;;;;;;15.93;11.05;;;3.50;88.30;;;;;;5106497;28;20473;-84
2021/12/25 03:30:46;;;;;;;20.17;13.20;;;3.40;88.20;;;;;;5093499;28;20047;-84
2021/12/25 03:33:15;;;;;;;20.80;13.38;;;3.40;88.10;;;;;;5103364;28;20050;-82
2021/12/25 03:35:41;;;;;;;17.77;11.75;;;3.40;88.10;;;;;;5099860;28;20043;-82
2021/12/25 03:38:10;;;;;;;17.92;12.75;;;3.30;88.00;;;;;;5104491;28;20454;-82
2021/12/25 03:40:35;;;;;;;16.35;10.05;;;3.20;87.90;;;;;;5100954;28;20521;-84
2021/12/25 03:43:01;;;;;;;19.13;11.93;;;3.30;88.40;;;;;;5103957;28;20024;-83
2021/12/25 03:45:30;;;;;;;14.60;10.23;;;3.20;87.80;;;;;;5096194;28;20032;-82
2021/12/25 03:48:16;;;;;;;14.27;9.15;;;3.20;88.20;;;;;;5099003;28;20024;-81
2021/12/25 03:58:56;;;;;;;16.45;10.88;;;3.30;88.50;;;;;;5099295;28;20040;-81
2021/12/25 04:01:42;;;;;;;14.27;9.80;;;3.20;87.70;;;;;;5102056;28;20027;-80
2021/12/25 04:04:24;;;;;;;14.60;9.60;;;3.30;88.30;;;;;;5105052;28;20493;-84
2021/12/25 04:06:58;;;;;;;12.73;9.13;;;3.30;87.90;;;;;;5098914;28;20580;-84
2021/12/25 04:09:29;;;;;;;12.55;8.75;;;3.40;88.00;;;;;;5096809;28;20043;-83
2021/12/25 04:11:58;;;;;;;15.73;11.05;;;3.40;87.90;;;;;;5093828;28;20044;-82
2021/12/25 04:14:24;;;;;;;13.50;10.05;;;3.30;86.90;;;;;;5102798;28;20036;-81
2021/12/25 04:16:50;;;;;;;13.73;9.27;;;3.20;87.10;;;;;;5098671;28;20154;-81
2021/12/25 04:19:16;;;;;;;11.48;9.05;;;3.20;87.40;;;;;;5100033;28;20109;-83
2021/12/25 04:21:51;;;;;;;12.85;8.68;;;3.10;87.40;;;;;;5106737;28;20024;-83
2021/12/25 04:24:17;;;;;;;11.27;7.55;;;3.00;87.20;;;;;;5101510;28;20474;-83
2021/12/25 04:26:44;;;;;;;11.05;7.75;;;3.00;87.40;;;;;;5092307;28;20020;-84
2021/12/25 04:48:47;;;;;;;10.30;6.10;;;3.20;87.30;;;;;;5099001;28;20525;-80
2021/12/25 05:01:50;;;;;;;7.85;4.90;;;2.90;85.20;;;;;;5095103;28;20039;-82
2021/12/25 05:04:27;;;;;;;6.88;4.60;;;2.80;85.70;;;;;;5091371;28;20028;-81
2021/12/25 05:06:53;;;;;;;6.57;4.82;;;2.90;86.00;;;;;;5096543;28;20020;-82
2021/12/25 05:09:19;;;;;;;5.93;3.92;;;2.80;85.70;;;;;;5103782;28;20069;-81
2021/12/25 05:11:44;;;;;;;5.55;4.30;;;2.90;85.80;;;;;;5092083;28;20093;-82
2021/12/25 05:14:10;;;;;;;5.20;3.60;;;2.80;84.80;;;;;;5102427;28;20504;-82
2021/12/25 05:16:36;;;;;;;4.43;3.10;;;2.70;84.60;;;;;;5101552;28;20052;-81
2021/12/25 05:19:01;;;;;;;4.57;2.97;;;2.80;85.30;;;;;;5110428;28;20127;-82
2021/12/25 05:21:27;;;;;;;5.00;3.42;;;2.80;85.10;;;;;;5080511;28;20131;-82
2021/12/25 05:23:52;;;;;;;3.25;2.60;;;2.80;84.90;;;;;;5095184;28;20074;-83
2021/12/25 05:26:18;;;;;;;3.78;2.88;;;3.00;85.20;;;;;;5082854;28;20072;-84
2021/12/25 05:28:46;;;;;;;3.15;2.65;;;3.00;84.50;;;;;;5087989;28;20020;-85
2021/12/25 05:31:15;;;;;;;4.30;3.65;;;3.00;84.40;;;;;;5086831;28;20032;-85
2021/12/25 05:33:42;;;;;;;5.43;2.72;;;2.80;83.10;;;;;;5101244;28;20083;-85
2021/12/25 05:36:08;;;;;;;4.63;2.90;;;2.70;83.10;;;;;;5082451;28;20062;-83
2021/12/25 05:38:34;;;;;;;3.80;2.60;;;2.60;82.60;;;;;;5080770;28;20643;-83
2021/12/25 05:41:00;;;;;;;3.80;2.70;;;2.50;82.60;;;;;;5081489;28;20073;-83
2021/12/25 05:43:26;;;;;;;4.20;2.85;;;2.50;83.10;;;;;;5082038;28;20121;-82
2021/12/25 05:45:52;;;;;;;4.65;3.10;;;2.30;82.20;;;;;;5104790;28;20049;-83
2021/12/25 05:48:17;;;;;;;3.63;2.45;;;2.20;82.20;;;;;;5081792;28;20043;-83
2021/12/25 05:50:43;;;;;;;3.50;2.70;;;2.10;82.80;;;;;;5081007;28;20101;-81
2021/12/25 05:53:08;;;;;;;3.95;2.75;;;2.10;82.70;;;;;;5090767;28;20020;-81
2021/12/25 05:55:34;;;;;;;3.25;2.47;;;2.10;83.20;;;;;;5098899;28;20172;-81
2021/12/25 05:58:03;;;;;;;4.78;3.58;;;2.30;83.80;;;;;;5099128;28;20020;-82
2021/12/25 06:00:30;;;;;;;5.50;3.35;;;2.50;83.80;;;;;;5101845;28;20410;-81
2021/12/25 06:02:55;;;;;;;4.03;3.00;;;2.40;83.20;;;;;;5096450;28;20029;-83
2021/12/25 06:05:21;;;;;;;5.57;2.90;;;2.30;82.50;;;;;;5088478;28;20129;-83
2021/12/25 06:07:47;;;;;;;3.15;2.17;;;2.40;83.30;;;;;;5082450;28;20028;-83
2021/12/25 06:10:13;;;;;;;2.78;2.40;;;2.50;83.80;;;;;;5077021;28;20749;-83
2021/12/25 06:12:40;;;;;;;3.72;2.58;;;2.60;83.70;;;;;;5075571;28;20096;-83
2021/12/25 06:15:07;;;;;;;2.85;2.58;;;2.60;83.20;;;;;;5078858;28;20546;-83
2021/12/25 06:17:33;;;;;;;6.32;2.95;;;2.60;83.20;;;;;;5080094;28;20111;-83
2021/12/25 06:19:58;;;;;;;2.65;2.33;;;2.50;82.30;;;;;;5080000;28;20749;-83
2021/12/25 06:22:24;;;;;;;5.65;2.55;;;2.60;83.10;;;;;;5076532;28;20028;-82
2021/12/25 06:24:49;;;;;;;4.13;2.60;;;2.70;83.20;;;;;;5081114;28;20032;-83
2021/12/25 06:27:22;;;;;;;4.32;3.20;;;2.70;82.90;;;;;;5073380;28;20030;-83
2021/12/25 06:29:49;;;;;;;2.53;2.30;;;2.60;82.40;;;;;;5081931;28;20445;-83
2021/12/25 06:32:16;;;;;;;3.10;2.60;;;2.70;82.90;;;;;;5075975;28;20028;-82
2021/12/25 06:34:42;;;;;;;2.80;2.40;;;2.70;82.80;;;;;;5091437;28;20851;-83
2021/12/25 06:37:07;;;;;;;4.03;2.47;;;2.70;82.80;;;;;;5081755;27;20111;-82
2021/12/25 06:39:33;;;;;;;3.08;2.50;;;2.80;82.80;;;;;;5087182;28;20044;-83
2021/12/25 06:41:59;;;;;;;4.10;3.38;;;2.70;82.50;;;;;;5084495;28;20501;-84
2021/12/25 06:44:27;;;;;;;3.90;3.00;;;2.60;81.70;;;;;;5085630;28;20030;-85
2021/12/25 06:46:53;;;;;;;3.10;2.80;;;2.50;81.40;;;;;;5094214;28;20648;-84
2021/12/25 06:49:19;;;;;;;3.85;2.90;;;2.40;80.70;;;;;;5082679;28;20024;-85
2021/12/25 06:51:45;;;;;;;2.83;2.47;;;2.20;80.70;;;;;;5092942;28;20024;-84
2021/12/25 06:54:10;;;;;;;4.32;3.30;;;2.20;81.20;;;;;;5084279;28;20070;-83
2021/12/25 06:56:36;;;;;;;4.95;2.95;;;2.10;81.00;;;;;;5092440;28;20031;-83
2021/12/25 06:59:01;;;;;;;3.22;2.58;;;2.10;81.10;;;;;;5103856;28;20031;-83
2021/12/25 07:01:27;;;;;;;3.45;2.55;;;2.10;81.70;;;;;;5102443;28;20108;-83
2021/12/25 07:03:52;;;;;;;3.70;2.85;;;2.20;82.00;;;;;;5084309;28;20032;-86
2021/12/25 07:06:18;;;;;;;5.10;3.08;;;2.10;81.80;;;;;;5090731;28;20440;-84
2021/12/25 07:08:44;;;;;;;4.13;3.00;;;2.10;81.40;;;;;;5094243;28;20034;-85
2021/12/25 07:11:09;;;;;;;5.43;3.17;;;2.00;80.30;;;;;;5090430;28;20031;-84
2021/12/25 07:13:35;;;;;;;4.32;3.10;;;1.90;80.10;;;;;;5097972;28;20076;-83
2021/12/25 07:16:00;;;;;;;2.90;2.40;;;1.70;80.30;;;;;;5105074;28;20091;-82
2021/12/25 07:18:26;;;;;;;3.47;2.40;;;1.70;81.10;;;;;;5088083;28;20110;-83
2021/12/25 07:20:51;;;;;;;3.80;2.80;;;1.80;81.50;;;;;;5088142;28;20047;-81
2021/12/25 07:23:18;;;;;;;2.55;2.35;;;1.80;81.00;;;;;;5090202;28;20024;-80
2021/12/25 07:25:44;;;;;;;3.72;2.72;;;1.80;81.00;;;;;;5102580;28;20470;-81
2021/12/25 07:28:11;;;;;;;3.92;2.65;;;1.80;81.20;;;;;;5100055;28;20019;-83
2021/12/25 07:30:36;;;;;;;5.20;3.17;;;1.80;81.20;;;;;;5086823;28;20035;-83
2021/12/25 07:33:03;;;;;;;3.25;2.40;;;1.80;80.90;;;;;;5083788;28;20174;-87
2021/12/25 07:35:28;;;;;;;4.28;2.90;;;1.60;80.60;;;;;;5079890;28;20020;-85
2021/12/25 07:37:55;;;;;;;3.85;3.08;;;1.50;80.00;;;;;;5087369;28;20030;-86
2021/12/25 07:40:24;;;;;;;3.95;3.55;;;1.40;79.70;;;;;;5083871;28;20037;-87
2021/12/25 07:42:50;;;;;;;4.15;3.40;;;1.20;79.30;;;;;;5094557;28;20031;-87
2021/12/25 07:45:15;;;;;;;4.70;3.40;;;1.10;79.80;;;;;;5084238;28;20043;-86
2021/12/25 07:47:47;;;;;;;4.57;3.60;;;1.00;80.20;;;;;;5087658;28;20020;-88
2021/12/25 07:50:13;;;;;;;3.63;2.90;;;1.00;80.30;;;;;;5100212;27;20024;-94
2021/12/25 07:52:40;;;;;;;3.40;2.88;;;1.00;80.80;;;;;;5106186;28;20432;-93
2021/12/25 07:55:06;;;;;;;3.55;2.72;;;1.00;80.70;;;;;;5091865;28;20036;-92
2021/12/25 07:57:32;;;;;;;3.92;2.65;;;1.00;80.90;;;;;;5080275;28;20027;-93
2021/12/25 07:59:58;;;;;;;3.80;3.05;;;1.00;80.90;;;;;;5102388;28;20139;-93
2021/12/25 08:02:23;;;;;;;4.35;3.15;;;1.00;81.00;;;;;;5075796;28;20040;-92
2021/12/25 08:04:49;;;;;;;5.40;3.47;;;1.00;80.90;;;;;;5079887;28;20035;-92
2021/12/25 08:07:14;;;;;;;3.75;3.30;;;0.90;80.30;;;;;;5090771;28;20390;-93
2021/12/25 08:09:42;;;;;;;4.00;3.17;;;0.80;80.50;;;;;;5096984;28;20021;-92
2021/12/25 08:12:08;;;;;;;3.47;3.10;;;0.70;80.40;;;;;;5098244;28;20505;-94
2021/12/25 08:14:34;;;;;;;4.82;3.80;;;0.80;80.70;;;;;;5100682;28;20020;-94
2021/12/25 08:17:02;;;;;;;5.57;3.65;;;0.70;80.60;;;;;;5116560;28;20023;-93
2021/12/25 08:19:28;;;;;;;4.32;3.40;;;0.60;80.10;;;;;;5079671;28;20036;-93
2021/12/25 08:21:53;;;;;;;4.50;3.65;;;0.50;79.90;;;;;;5076906;28;20024;-93
2021/12/25 08:24:20;;;;;;;3.85;3.10;;;0.30;79.70;;;;;;5115603;27;20036;-95
2021/12/25 08:26:47;;;;;;;5.03;3.42;;;0.20;80.10;;;;;;5108079;28;20042;-94
2021/12/25 08:29:15;;;;;;;3.92;2.92;;;0.20;80.50;;;;;;5094612;28;20035;-93
2021/12/25 08:31:41;;;;;;;3.92;2.78;;;0.20;80.80;;;;;;5097802;28;20028;-93
2021/12/25 08:34:07;;;;;;;3.42;2.90;;;0.30;81.00;;;;;;5089351;28;20102;-92
2021/12/25 08:36:33;;;;;;;3.80;3.00;;;0.20;80.70;;;;;;5102247;28;20032;-92
2021/12/25 08:38:59;;;;;;;4.15;3.25;;;0.20;80.70;;;;;;5099287;28;20397;-90
2021/12/25 08:41:28;;;;;;;3.95;3.00;;;0.20;80.60;;;;;;5082207;28;20052;-93
2021/12/25 08:43:59;;;;;;;3.00;2.58;;;0.10;80.40;;;;;;5100719;28;20410;-90
2021/12/25 08:49:16;;;;;;;3.50;2.50;;;0.10;80.60;;;;;;5076034;28;20043;-93
2021/12/25 08:51:45;;;;;;;4.00;2.40;;;0.00;80.20;;;;;;5086988;28;20421;-92
2021/12/25 08:54:12;;;;;;;2.47;2.28;;;-0.10;79.70;;;;;;5110291;28;20761;-92
2021/12/25 08:56:38;;;;;;;3.35;2.25;;;-0.10;79.80;;;;;;5102698;28;20016;-92
2021/12/25 08:59:04;;;;;;;2.75;2.20;;;-0.10;79.70;;;;;;5100311;28;20028;-91
2021/12/25 09:01:29;;;;;;;2.45;2.05;;;-0.20;79.30;;;;;;5093136;28;20368;-92
2021/12/25 09:03:59;;;;;;;3.25;1.95;;;-0.20;79.90;;;;;;5094015;28;20052;-94
2021/12/25 09:06:26;;;;;;;2.92;2.10;;;-0.20;79.70;;;;;;5102633;28;20035;-93
2021/12/25 09:09:07;;;;;;;3.20;2.30;;;-0.20;79.50;;;;;;5102187;28;20101;-93
2021/12/25 09:11:35;;;;;;;3.03;2.00;;;-0.20;79.20;;;;;;5102274;28;20028;-92
2021/12/25 09:14:04;;;;;;;2.20;1.95;;;-0.20;79.10;;;;;;5096894;28;20016;-91
2021/12/25 09:16:33;;;;;;;3.60;1.60;;;-0.30;78.60;;;;;;5098420;28;20107;-93
2021/12/25 09:19:01;;;;;;;4.05;1.88;;;-0.30;78.20;;;;;;5097278;28;20020;-90
2021/12/25 09:21:26;;;;;;;3.42;2.00;;;-0.30;78.30;;;;;;5101501;28;20032;-91
2021/12/25 09:23:53;;;;;;;2.70;1.80;;;-0.20;77.70;;;;;;5096860;28;20034;-92
2021/12/25 09:26:19;;;;;;;2.72;1.60;;;-0.20;77.70;;;;;;5097403;28;20042;-90
2021/12/25 09:28:46;;;;;;;2.28;1.58;;;-0.10;77.40;;;;;;5086374;28;20021;-89
2021/12/25 09:31:13;;;;;;;2.05;1.60;;;-0.20;76.40;;;;;;5089489;28;20028;-89
2021/12/25 09:33:39;;;;;;;1.90;1.52;;;-0.10;76.40;;;;;;5094538;28;20032;-90
2021/12/25 09:36:06;;;;;;;2.50;1.73;;;0.00;76.50;;;;;;5083278;28;20031;-89
2021/12/25 09:38:33;;;;;;;3.17;1.77;;;-0.10;75.40;;;;;;5073760;28;20020;-88
2021/12/25 09:40:59;;;;;;;1.95;1.52;;;-0.10;73.30;;;;;;5084255;28;20345;-89
2021/12/25 09:43:25;;;;;;;2.60;2.05;;;-0.10;73.70;;;;;;5093590;28;20016;-90
2021/12/25 09:45:51;;;;;;;2.13;1.30;;;0.00;74.10;;;;;;5096913;28;20028;-88
2021/12/25 09:48:17;;;;;;;1.77;1.60;;;0.00;73.20;;;;;;5088802;28;20024;-89
2021/12/25 09:50:43;;;;;;;2.60;1.50;;;0.00;72.20;;;;;;5084803;28;20044;-86
2021/12/25 09:53:12;;;;;;;3.05;1.63;;;0.00;73.00;;;;;;5092415;28;20430;-88
2021/12/25 09:55:42;;;;;;;2.40;1.52;;;0.10;71.70;;;;;;5084160;28;20110;-86
2021/12/25 09:58:07;;;;;;;1.40;1.30;;;0.10;71.80;;;;;;5100865;28;20405;-89
2021/12/25 10:00:36;;;;;;;1.35;1.25;;;0.00;70.50;;;;;;5090001;28;20189;-88
2021/12/25 10:03:02;;;;;;;1.40;1.30;;;0.10;70.90;;;;;;5097242;28;20503;-90
2021/12/25 10:05:30;;;;;;;1.90;1.33;;;0.10;71.00;;;;;;5089781;28;20024;-91
2021/12/25 10:08:08;;;;;;;1.85;1.52;;;0.10;68.90;;;;;;5091176;28;20019;-91
2021/12/25 10:10:41;;;;;;;1.77;1.30;;;0.00;69.00;;;;;;5102540;28;20080;-88
2021/12/25 10:13:20;;;;;;;1.52;1.40;;;0.10;69.90;;;;;;5092043;28;20463;-88
2021/12/25 10:15:45;;;;;;;2.03;1.40;;;0.10;69.50;;;;;;5099042;28;20024;-90
2021/12/25 10:18:11;;;;;;;1.70;1.60;;;0.10;69.80;;;;;;5087144;28;20092;-88
2021/12/25 10:20:36;;;;;;;1.60;1.50;;;0.10;69.40;;;;;;5088226;28;20395;-89
2021/12/25 10:23:14;;;;;;;2.15;1.60;;;0.10;69.30;;;;;;5083678;28;20149;-90
2021/12/25 10:25:47;;;;;;;1.33;1.20;;;0.20;69.40;;;;;;5076968;28;20107;-90
2021/12/25 10:28:16;;;;;;;2.25;1.50;;;0.20;69.70;;;;;;5083039;28;20032;-92
2021/12/25 10:30:52;;;;;;;1.90;1.30;;;0.30;70.30;;;;;;5086220;28;20111;-92
2021/12/25 10:33:47;;;;;;;1.92;1.70;;;0.30;70.00;;;;;;5085760;28;20545;-91
2021/12/25 10:36:34;;;;;;;1.50;1.40;;;0.30;69.50;;;;;;5096654;28;20064;-94
2021/12/25 10:39:11;;;;;;;2.17;1.77;;;0.40;69.20;;;;;;5089787;28;20041;-90
2021/12/25 10:41:51;;;;;;;2.22;1.50;;;0.30;68.50;;;;;;5083712;28;20031;-90
2021/12/25 10:44:21;;;;;;;2.20;1.50;;;0.40;68.70;;;;;;5095549;28;20516;-90
2021/12/25 10:46:59;;;;;;;2.10;1.50;;;0.40;69.00;;;;;;5088172;28;20024;-91
2021/12/25 10:49:27;;;;;;;1.50;1.40;;;0.50;69.50;;;;;;5084450;28;20049;-92
2021/12/25 10:51:53;;;;;;;1.92;1.40;;;0.60;68.40;;;;;;5103678;28;20028;-93
2021/12/25 10:54:19;;;;;;;1.83;1.40;;;0.50;68.70;;;;;;5095063;28;20016;-91
2021/12/25 10:56:48;;;;;;;2.38;1.38;;;0.50;68.40;;;;;;5091226;28;20052;-90
2021/12/25 10:59:17;;;;;;;1.48;1.30;;;0.60;68.60;;;;;;5102116;28;20482;-90
2021/12/25 11:01:50;;;;;;;1.35;1.25;;;0.60;67.60;;;;;;5095400;28;20028;-90
2021/12/25 11:04:35;;;;;;;1.80;1.42;;;0.60;68.30;;;;;;5089251;28;20059;-91
2021/12/25 11:07:12;;;;;;;2.35;1.50;;;0.60;68.20;;;;;;5092220;28;20019;-92
2021/12/25 11:09:38;;;;;;;2.13;1.40;;;0.70;68.20;;;;;;5102971;28;20069;-90
2021/12/25 11:12:19;;;;;;;1.90;1.40;;;0.70;67.30;;;;;;5093373;28;20085;-90
2021/12/25 11:14:45;;;;;;;2.08;1.40;;;0.60;67.00;;;;;;5098351;28;20019;-90
2021/12/25 11:17:24;;;;;;;2.03;1.58;;;0.70;66.60;;;;;;5094730;28;20035;-90
2021/12/25 11:20:00;;;;;;;1.63;1.42;;;0.60;66.50;;;;;;5079635;28;20032;-88
2021/12/25 11:22:43;;;;;;;1.58;1.30;;;0.60;65.80;;;;;;5107614;28;20363;-88
2021/12/25 11:25:09;;;;;;;1.50;1.40;;;0.60;66.10;;;;;;5082110;28;20633;-88
2021/12/25 11:27:36;;;;;;;1.95;1.50;;;0.70;66.40;;;;;;5079900;28;20081;-88
2021/12/25 11:30:02;;;;;;;1.45;1.35;;;0.70;66.20;;;;;;5090732;28;20020;-88
2021/12/25 11:32:27;;;;;;;2.83;1.58;;;0.60;65.20;;;;;;5096980;28;20084;-88
2021/12/25 11:34:55;;;;;;;1.80;1.42;;;0.70;65.60;;;;;;5103031;28;20808;-89
2021/12/25 11:37:21;;;;;;;2.13;1.55;;;0.70;65.20;;;;;;5089274;28;20031;-83
2021/12/25 11:39:52;;;;;;;2.88;1.73;;;0.70;65.60;;;;;;5099609;28;20065;-85
2021/12/25 11:42:18;;;;;;;1.73;1.30;;;0.70;64.80;;;;;;5099570;28;20024;-86
2021/12/25 11:44:50;;;;;;;2.13;1.40;;;0.70;64.80;;;;;;5095100;28;20050;-87
2021/12/25 11:47:29;;;;;;;1.95;1.52;;;0.80;64.70;;;;;;5084154;28;20035;-88
2021/12/25 11:49:58;;;;;;;1.30;1.20;;;0.80;65.00;;;;;;5100601;28;20390;-88
2021/12/25 11:52:28;;;;;;;2.40;1.38;;;0.90;65.10;;;;;;5093799;28;20050;-88
2021/12/25 11:57:51;;;;;;;3.17;1.40;;;0.90;64.90;;;;;;5091876;28;20024;-88
2021/12/25 12:00:42;;;;;;;2.17;1.50;;;0.90;64.30;;;;;;5082189;28;20036;-86
2021/12/25 12:03:08;;;;;;;1.40;1.30;;;1.00;64.70;;;;;;5094848;28;20028;-85
2021/12/25 12:05:35;;;;;;;2.00;1.60;;;1.00;64.70;;;;;;5081637;28;20029;-86
2021/12/25 12:08:10;;;;;;;2.40;1.40;;;1.10;64.00;;;;;;5082653;28;20442;-86
2021/12/25 12:10:49;;;;;;;2.42;1.40;;;1.10;63.40;;;;;;5085055;28;20024;-86
2021/12/25 12:13:23;;;;;;;1.88;1.50;;;1.10;63.70;;;;;;5090295;28;20020;-86
2021/12/25 12:15:51;;;;;;;1.80;1.50;;;1.10;63.50;;;;;;5082646;28;20020;-86
2021/12/25 12:18:23;;;;;;;1.80;1.40;;;1.10;63.50;;;;;;5088572;28;20109;-86
2021/12/25 12:20:49;;;;;;;3.22;1.63;;;1.20;63.60;;;;;;5087145;28;20486;-85
2021/12/25 12:23:50;;;;;;;1.85;1.40;;;1.20;63.60;;;;;;5089864;28;20020;-85
2021/12/25 12:26:45;;;;;;;2.38;1.50;;;1.30;64.30;;;;;;5085993;28;20020;-85
2021/12/25 12:29:12;;;;;;;1.95;1.33;;;1.30;63.30;;;;;;5081792;28;20074;-85
2021/12/25 12:31:45;;;;;;;3.40;1.50;;;1.40;64.00;;;;;;5089560;28;20013;-85
2021/12/25 12:34:29;;;;;;;1.67;1.20;;;1.30;62.90;;;;;;5091913;28;20043;-86
2021/12/25 12:37:13;;;;;;;1.42;1.33;;;1.30;62.50;;;;;;5096754;28;20084;-86
2021/12/25 12:40:05;;;;;;;1.95;1.50;;;1.30;62.20;;;;;;5079720;28;20532;-86
2021/12/25 12:42:43;;;;;;;2.53;1.63;;;1.40;62.90;;;;;;5094495;28;20523;-87
2021/12/25 12:45:13;;;;;;;2.17;1.60;;;1.30;61.90;;;;;;5088829;28;20023;-87
2021/12/25 12:47:38;;;;;;;3.03;1.60;;;1.40;62.50;;;;;;5094679;28;20028;-89
2021/12/25 12:50:09;;;;;;;2.25;1.73;;;1.40;62.00;;;;;;5099751;28;20057;-85
2021/12/25 12:52:39;;;;;;;2.17;1.35;;;1.30;61.40;;;;;;5100014;28;20016;-86
2021/12/25 12:55:25;;;;;;;3.13;1.52;;;1.40;62.10;;;;;;5095988;28;20031;-85
2021/12/25 12:58:13;;;;;;;1.80;1.50;;;1.40;62.10;;;;;;5095702;28;20028;-88
2021/12/25 13:00:42;;;;;;;3.53;2.08;;;1.50;61.70;;;;;;5085419;28;20025;-88
2021/12/25 13:03:08;;;;;;;3.90;1.88;;;1.50;61.20;;;;;;5093211;28;20016;-89
2021/12/25 13:05:40;;;;;;;2.92;1.50;;;1.50;61.50;;;;;;5093925;28;20026;-89
2021/12/25 13:08:17;;;;;;;3.20;1.50;;;1.60;61.70;;;;;;5090331;28;20032;-88
2021/12/25 13:10:51;;;;;;;1.60;1.50;;;1.60;60.20;;;;;;5099836;28;20020;-89
2021/12/25 13:13:21;;;;;;;1.60;1.50;;;1.60;59.70;;;;;;5088047;28;20032;-87
2021/12/25 13:15:53;;;;;;;2.00;1.60;;;1.60;60.20;;;;;;5094518;28;20016;-90
2021/12/25 13:18:34;;;;;;;2.08;1.60;;;1.60;60.10;;;;;;5104747;28;20387;-89
2021/12/25 13:21:02;;;;;;;2.72;1.40;;;1.50;59.70;;;;;;5084130;28;20040;-90
2021/12/25 13:23:34;;;;;;;2.25;1.65;;;1.50;59.40;;;;;;5088099;28;20059;-89
2021/12/25 13:26:04;;;;;;;2.95;1.73;;;1.40;58.80;;;;;;5089130;28;20011;-87
2021/12/25 13:28:32;;;;;;;2.15;1.65;;;1.40;59.50;;;;;;5081984;28;20028;-85
2021/12/25 13:31:04;;;;;;;2.13;1.60;;;1.40;60.30;;;;;;5082252;28;20028;-88
2021/12/25 13:33:32;;;;;;;2.03;1.60;;;1.50;60.30;;;;;;5085649;28;20073;-85
2021/12/25 13:36:12;;;;;;;2.17;1.73;;;1.50;59.90;;;;;;5089136;28;20032;-88
2021/12/25 13:38:56;;;;;;;2.90;1.60;;;1.40;59.50;;;;;;5076431;28;20528;-89
2021/12/25 13:41:34;;;;;;;2.63;1.58;;;1.40;59.00;;;;;;5081724;28;20253;-91
2021/12/25 13:44:28;;;;;;;2.40;1.60;;;1.40;59.30;;;;;;5093195;28;20027;-89
2021/12/25 13:47:00;;;;;;;2.03;1.60;;;1.30;58.00;;;;;;5091701;28;20032;-90
2021/12/25 13:49:45;;;;;;;;;;;1.20;57.50;;;;;;5091524;28;20025;-90
2021/12/25 13:52:12;;;;;;;2.70;1.50;;;1.20;57.80;;;;;;5104045;28;19914;-91
2021/12/25 13:54:56;;;;;;;1.95;1.55;;;1.10;57.50;;;;;;5095490;28;20498;-89
2021/12/25 13:57:27;;;;;;;2.47;1.40;;;1.10;58.40;;;;;;5087729;28;20035;-92
2021/12/25 13:59:58;;;;;;;3.15;1.50;;;1.10;58.60;;;;;;5105690;28;20027;-92
2021/12/25 14:02:25;;;;;;;2.90;1.70;;;1.10;58.40;;;;;;5105663;27;20107;-91
2021/12/25 14:04:52;;;;;;;2.10;1.50;;;1.10;57.60;;;;;;5098159;28;20024;-90
2021/12/25 14:07:21;;;;;;;2.28;1.65;;;1.10;57.30;;;;;;5104131;28;20544;-89
2021/12/25 14:10:00;;;;;;;2.53;1.60;;;1.00;56.80;;;;;;5095108;28;20031;-91
2021/12/25 14:12:27;;;;;;;2.15;1.55;;;1.00;57.30;;;;;;5097965;27;20028;-90
2021/12/25 14:14:56;;;;;;;2.50;1.65;;;1.00;57.30;;;;;;5097751;28;20786;-93
2021/12/25 14:17:23;;;;;;;2.20;1.65;;;1.00;57.70;;;;;;5085542;28;20108;-92